KCOD/COD METAR and TAF weather

Enter ICAO airport designator
Station Type Date Time Source
KCOD METAR 2020/06/06 18:56 UTC NOAA

KCOD 061856Z AUTO 24018G29KT 10SM -RA FEW065 OVC080 15/09 A2968 RMK AO2 PK WND 24029/1853 TSE18 SLP010 P0003 T01500094


Station Type Date Time Source
KCOD Decoded METAR 2020/06/06 18:56 UTC NOAA

Cody, WY, United States (KCOD) 44-31N 109-01W 1553M
Jun 06, 2020 - 02:56 PM EDT / 2020.06.06 1856 UTC
Wind: from the WSW (240 degrees) at 21 MPH (18 KT) gusting to 33 MPH (29 KT):0
Visibility: 10 mile(s):0
Sky conditions: overcast
Weather: light rain
Precipitation last hour: 0.03 inches
Temperature: 59.0 F (15.0 C)
Dew Point: 48.9 F (9.4 C)
Relative Humidity: 69%
Pressure (altimeter): 29.68 in. Hg (1005 hPa)
ob: KCOD 061856Z AUTO 24018G29KT 10SM -RA FEW065 OVC080 15/09 A2968 RMK AO2 PK WND 24029/1853 TSE18 SLP010 P0003 T01500094
cycle: 19

Station Type Date Time Source
KCOD TAF 2020/06/06 18:42 UTC NOAA

TAF KCOD 061739Z 0618/0718 24011G18KT P6SM VCSH SCT060 BKN090
TEMPO 0618/0620 VRB25G40KT 6SM -TSRA SCT030 BKN050CB
FM062300 23013G21KT P6SM -SHRA SCT035 BKN060
TEMPO 0623/0703 5SM -SHRA SCT025 BKN040
FM070400 24010G17KT P6SM SCT040 BKN060

Example: see airport list